createdAt,value
2023-03-30T00:00:57.714Z,-10.83
2023-03-30T00:03:27.490Z,-10.92
2023-03-30T00:05:56.783Z,-10.94
2023-03-30T00:08:28.013Z,-10.92
2023-03-30T00:11:00.624Z,-10.97
2023-03-30T00:13:28.579Z,-10.98
2023-03-30T00:15:57.570Z,-10.97
2023-03-30T00:18:25.302Z,-10.96
2023-03-30T00:20:53.517Z,-11.00
2023-03-30T00:23:21.373Z,-11.01
2023-03-30T00:25:49.263Z,-11.01
2023-03-30T00:28:16.948Z,-11.05
2023-03-30T00:30:44.706Z,-11.07
2023-03-30T00:33:13.993Z,-11.04
2023-03-30T00:35:41.758Z,-11.07
2023-03-30T00:38:09.447Z,-11.02
2023-03-30T00:40:38.434Z,-11.04
2023-03-30T00:43:07.527Z,-11.09
2023-03-30T00:45:36.632Z,-11.08
2023-03-30T00:48:06.511Z,-11.11
2023-03-30T00:50:39.010Z,-11.14
2023-03-30T00:53:10.102Z,-11.15
2023-03-30T00:55:39.922Z,-11.09
2023-03-30T00:58:10.017Z,-11.14
2023-03-30T01:00:39.623Z,-11.18
2023-03-30T01:03:11.729Z,-11.18
2023-03-30T01:05:42.343Z,-11.16
2023-03-30T01:08:14.011Z,-11.18
2023-03-30T01:10:41.800Z,-11.19
2023-03-30T01:13:09.879Z,-11.25
2023-03-30T01:15:40.984Z,-11.27
2023-03-30T01:18:19.729Z,-11.38
2023-03-30T01:21:05.480Z,-11.44
2023-03-30T01:23:52.068Z,-11.45
2023-03-30T01:26:35.696Z,-11.55
2023-03-30T01:29:09.019Z,-11.65
2023-03-30T01:31:50.383Z,-11.74
2023-03-30T01:34:32.364Z,-11.78
2023-03-30T01:37:29.988Z,-11.74
2023-03-30T01:40:02.226Z,-11.88
2023-03-30T01:42:35.908Z,-11.86
2023-03-30T01:45:09.915Z,-11.86
2023-03-30T01:47:40.750Z,-11.83
2023-03-30T01:50:10.364Z,-11.79
2023-03-30T01:52:41.222Z,-11.79
2023-03-30T01:55:14.834Z,-11.92
2023-03-30T01:57:45.542Z,-11.92
2023-03-30T02:00:15.102Z,-11.88
2023-03-30T02:02:45.376Z,-11.88
2023-03-30T02:05:18.013Z,-11.90
2023-03-30T02:07:47.924Z,-11.98
2023-03-30T02:10:18.894Z,-12.08
2023-03-30T02:12:47.910Z,-12.07
2023-03-30T02:15:17.945Z,-12.08
2023-03-30T02:17:47.600Z,-12.14
2023-03-30T02:20:17.581Z,-12.07
2023-03-30T02:22:45.847Z,-12.08
2023-03-30T02:25:14.350Z,-12.06
2023-03-30T02:27:43.492Z,-12.06
2023-03-30T02:30:11.576Z,-12.09
2023-03-30T02:32:42.469Z,-12.13
2023-03-30T02:35:22.328Z,-12.16
2023-03-30T02:38:02.184Z,-12.13
2023-03-30T02:40:34.935Z,-12.11
2023-03-30T02:43:14.922Z,-12.19
2023-03-30T02:45:47.631Z,-12.30
2023-03-30T02:48:23.066Z,-12.36
2023-03-30T02:50:55.611Z,-12.37
2023-03-30T02:53:27.400Z,-12.40
2023-03-30T02:56:03.964Z,-12.41
2023-03-30T02:58:36.226Z,-12.44
2023-03-30T03:01:06.044Z,-12.48
2023-03-30T03:03:36.042Z,-12.52
2023-03-30T03:06:04.778Z,-12.66
2023-03-30T03:08:35.260Z,-12.69
2023-03-30T03:11:03.303Z,-12.70
2023-03-30T03:13:32.098Z,-12.67
2023-03-30T03:16:04.069Z,-12.62
2023-03-30T03:18:32.062Z,-12.60
2023-03-30T03:20:59.725Z,-12.63
2023-03-30T03:23:27.450Z,-12.55
2023-03-30T03:25:55.156Z,-12.54
2023-03-30T03:28:22.833Z,-12.54
2023-03-30T03:30:50.573Z,-12.47
2023-03-30T03:33:20.416Z,-12.36
2023-03-30T03:35:48.336Z,-12.38
2023-03-30T03:38:16.180Z,-12.45
2023-03-30T03:40:43.887Z,-12.48
2023-03-30T03:43:11.548Z,-12.45
2023-03-30T03:45:39.250Z,-12.42
2023-03-30T03:48:08.355Z,-12.40
2023-03-30T03:50:38.288Z,-12.37
2023-03-30T03:53:06.062Z,-12.41
2023-03-30T03:55:35.449Z,-12.38
2023-03-30T03:58:03.200Z,-12.45
2023-03-30T04:00:30.939Z,-12.43
2023-03-30T04:02:59.036Z,-12.39
2023-03-30T04:05:27.029Z,-12.41
2023-03-30T04:07:56.870Z,-12.42
2023-03-30T04:10:27.214Z,-12.42
2023-03-30T04:12:56.012Z,-12.39
2023-03-30T04:15:23.696Z,-12.45
2023-03-30T04:17:58.140Z,-12.42
2023-03-30T04:20:26.098Z,-12.35
2023-03-30T04:22:54.490Z,-12.33
2023-03-30T04:25:25.787Z,-12.40
2023-03-30T04:27:53.676Z,-12.45
2023-03-30T04:30:22.477Z,-12.48
2023-03-30T04:33:02.546Z,-12.49
2023-03-30T04:35:31.935Z,-12.53
2023-03-30T04:38:00.246Z,-12.54
2023-03-30T04:40:29.362Z,-12.62
2023-03-30T04:43:02.224Z,-12.67
2023-03-30T04:45:33.032Z,-12.75
2023-03-30T04:48:00.769Z,-12.71
2023-03-30T04:50:28.502Z,-12.75
2023-03-30T04:52:56.241Z,-12.73
2023-03-30T04:55:24.038Z,-12.72
2023-03-30T04:57:53.203Z,-12.61
2023-03-30T05:00:21.360Z,-12.56
2023-03-30T05:02:49.109Z,-12.56
2023-03-30T05:05:16.975Z,-12.55
2023-03-30T05:07:44.700Z,-12.58
2023-03-30T05:10:12.352Z,-12.61
2023-03-30T05:12:39.968Z,-12.47
2023-03-30T05:15:09.816Z,-12.38
2023-03-30T05:17:38.610Z,-12.32
2023-03-30T05:20:08.593Z,-12.26
2023-03-30T05:22:36.580Z,-12.23
2023-03-30T05:25:04.468Z,-12.29
2023-03-30T05:27:32.142Z,-12.20
2023-03-30T05:29:59.896Z,-12.13
2023-03-30T05:32:29.331Z,-12.06
2023-03-30T05:34:57.051Z,-11.96
2023-03-30T05:37:24.733Z,-11.87
2023-03-30T05:39:52.400Z,-11.86
2023-03-30T05:42:20.104Z,-11.84
2023-03-30T05:44:47.785Z,-11.84
2023-03-30T05:47:16.526Z,-11.78
2023-03-30T05:49:45.986Z,-11.72
2023-03-30T05:52:13.663Z,-11.67
2023-03-30T05:54:41.431Z,-11.60
2023-03-30T05:57:09.142Z,-11.58
2023-03-30T05:59:37.369Z,-11.59
2023-03-30T06:02:08.410Z,-11.53
2023-03-30T06:04:37.283Z,-11.43
2023-03-30T06:07:06.533Z,-11.33
2023-03-30T06:09:34.226Z,-11.24
2023-03-30T06:12:02.637Z,-11.15
2023-03-30T06:14:30.270Z,-11.02
2023-03-30T06:16:58.242Z,-10.98
2023-03-30T06:19:26.006Z,-10.96
2023-03-30T06:21:54.535Z,-10.88
2023-03-30T06:24:23.663Z,-10.80
2023-03-30T06:26:51.473Z,-10.72
2023-03-30T06:29:19.332Z,-10.60
2023-03-30T06:31:47.988Z,-10.50
2023-03-30T06:34:15.699Z,-10.37
2023-03-30T06:36:46.082Z,-10.26
2023-03-30T06:39:13.971Z,-10.16
2023-03-30T06:41:43.103Z,-9.35
2023-03-30T06:44:14.737Z,-8.03
2023-03-30T06:46:42.772Z,-7.13
2023-03-30T06:49:13.007Z,-6.51
2023-03-30T06:51:40.681Z,-6.92
2023-03-30T06:54:08.293Z,-6.29
2023-03-30T06:56:35.989Z,-5.86
2023-03-30T06:59:05.735Z,-6.10
2023-03-30T07:01:33.562Z,-6.71
2023-03-30T07:04:02.660Z,-6.94
2023-03-30T07:06:30.493Z,-7.07
2023-03-30T07:08:58.111Z,-7.20
2023-03-30T07:11:26.242Z,-7.28
2023-03-30T07:13:56.242Z,-7.24
2023-03-30T07:16:25.781Z,-7.23
2023-03-30T07:18:55.512Z,-7.22
2023-03-30T07:21:23.378Z,-7.21
2023-03-30T07:23:51.714Z,-7.19
2023-03-30T07:26:19.416Z,-7.17
2023-03-30T07:28:47.030Z,-7.11
2023-03-30T07:31:15.324Z,-7.02
2023-03-30T07:33:44.580Z,-6.89
2023-03-30T07:36:12.295Z,-6.87
2023-03-30T07:38:40.154Z,-6.80
2023-03-30T07:41:08.634Z,-6.84
2023-03-30T07:43:36.452Z,-6.74
2023-03-30T07:46:04.302Z,-6.70
2023-03-30T07:48:31.978Z,-6.73
2023-03-30T07:51:05.684Z,-6.71
2023-03-30T07:53:33.715Z,-6.57
2023-03-30T07:56:01.689Z,-6.46
2023-03-30T07:58:29.444Z,-6.34
2023-03-30T08:00:57.223Z,-6.24
2023-03-30T08:03:25.300Z,-6.16
2023-03-30T08:05:54.069Z,-6.06
2023-03-30T08:08:23.233Z,-6.06
2023-03-30T08:10:50.958Z,-6.04
2023-03-30T08:13:20.597Z,-5.92
2023-03-30T08:15:50.908Z,-5.80
2023-03-30T08:18:18.642Z,-5.69
2023-03-30T08:20:46.314Z,-5.61
2023-03-30T08:23:14.039Z,-5.53
2023-03-30T08:25:45.264Z,-5.44
2023-03-30T08:28:14.435Z,-5.33
2023-03-30T08:30:42.058Z,-5.28
2023-03-30T08:33:09.951Z,-5.18
2023-03-30T08:35:37.587Z,-5.07
2023-03-30T08:38:05.275Z,-4.99
2023-03-30T08:40:32.989Z,-4.91
2023-03-30T08:43:10.448Z,-4.87
2023-03-30T08:45:41.156Z,-4.82
2023-03-30T08:48:16.270Z,-4.82
2023-03-30T08:50:47.649Z,-4.61
2023-03-30T08:53:15.386Z,-4.49
2023-03-30T08:55:44.408Z,-4.47
2023-03-30T08:58:17.606Z,-4.42
2023-03-30T09:00:47.789Z,-4.35
2023-03-30T09:03:19.333Z,-4.22
2023-03-30T09:05:51.132Z,-4.10
2023-03-30T09:08:21.649Z,-3.93
2023-03-30T09:10:53.497Z,-3.93
2023-03-30T09:13:24.714Z,-3.83
2023-03-30T09:15:57.046Z,-3.69
2023-03-30T09:18:27.050Z,-3.63
2023-03-30T09:20:56.352Z,-3.40
2023-03-30T09:23:25.572Z,-3.20
2023-03-30T09:26:01.481Z,-2.97
2023-03-30T09:28:34.528Z,-2.83
2023-03-30T09:31:04.432Z,-2.65
2023-03-30T09:33:37.044Z,-2.52
2023-03-30T09:36:11.747Z,-2.47
2023-03-30T09:38:42.063Z,-2.39
2023-03-30T09:41:19.265Z,-2.33
2023-03-30T09:43:49.071Z,-2.21
2023-03-30T09:46:16.935Z,-2.11
2023-03-30T09:48:45.496Z,-1.93
2023-03-30T09:51:20.868Z,-1.82
2023-03-30T09:53:49.977Z,-1.72
2023-03-30T09:56:28.488Z,-1.69
2023-03-30T09:58:57.717Z,-1.65
2023-03-30T10:01:35.934Z,-1.56
2023-03-30T10:04:08.392Z,-1.43
2023-03-30T10:06:38.265Z,-1.40
2023-03-30T10:09:09.002Z,-1.40
2023-03-30T10:11:38.604Z,-1.34
2023-03-30T10:14:07.898Z,-1.15
2023-03-30T10:16:36.705Z,-1.05
2023-03-30T10:19:05.704Z,-0.98
2023-03-30T10:21:37.776Z,-0.92
2023-03-30T10:24:08.196Z,-0.86
2023-03-30T10:26:37.630Z,-0.81
2023-03-30T10:29:07.414Z,-0.72
2023-03-30T10:31:38.052Z,-0.72
2023-03-30T10:34:06.857Z,-0.69
2023-03-30T10:36:37.128Z,-0.69
2023-03-30T10:39:07.488Z,-0.59
2023-03-30T10:41:37.165Z,-0.57
2023-03-30T10:44:17.156Z,-0.50
2023-03-30T10:46:46.383Z,-0.37
2023-03-30T10:49:18.262Z,-0.26
2023-03-30T10:51:54.120Z,-0.21
2023-03-30T10:54:27.385Z,-0.18
2023-03-30T10:56:56.583Z,-0.14
2023-03-30T10:59:32.324Z,-0.11
2023-03-30T11:02:18.166Z,-0.11
2023-03-30T11:04:47.323Z,-0.07
2023-03-30T11:07:18.685Z,-0.10
2023-03-30T11:09:49.071Z,0.01
2023-03-30T11:12:19.906Z,0.07
2023-03-30T11:14:48.376Z,0.17
2023-03-30T11:17:21.415Z,0.17
2023-03-30T11:19:51.236Z,0.21
2023-03-30T11:22:25.591Z,0.23
2023-03-30T11:24:55.270Z,0.28
2023-03-30T11:27:27.994Z,0.35
2023-03-30T11:29:58.181Z,0.35
2023-03-30T11:32:31.114Z,0.37
2023-03-30T11:35:02.776Z,0.44
2023-03-30T11:37:34.351Z,0.44
2023-03-30T11:40:11.309Z,0.47
2023-03-30T11:42:39.119Z,0.50
2023-03-30T11:45:18.743Z,0.52
2023-03-30T11:48:01.601Z,0.52
2023-03-30T11:50:36.221Z,0.52
2023-03-30T11:53:11.325Z,0.66
2023-03-30T11:55:45.432Z,0.64
2023-03-30T11:58:18.544Z,0.68
2023-03-30T12:00:53.746Z,0.64
2023-03-30T12:03:28.115Z,0.65
2023-03-30T12:06:01.436Z,0.61
2023-03-30T12:08:42.205Z,0.58
2023-03-30T12:11:13.576Z,0.56
2023-03-30T12:13:50.783Z,0.50
2023-03-30T12:16:20.889Z,0.48
2023-03-30T12:18:54.930Z,0.48
2023-03-30T12:21:29.912Z,0.49
2023-03-30T12:24:02.217Z,0.58
2023-03-30T12:26:31.229Z,0.65
2023-03-30T12:31:49.377Z,0.81
2023-03-30T12:34:17.576Z,0.88
2023-03-30T12:36:51.064Z,0.89
2023-03-30T12:39:25.979Z,0.72
2023-03-30T12:42:04.381Z,0.72
2023-03-30T12:44:36.438Z,0.71
2023-03-30T12:47:12.286Z,0.68
2023-03-30T12:49:47.160Z,0.76
2023-03-30T12:52:18.057Z,0.74
2023-03-30T12:54:54.908Z,0.73
2023-03-30T12:57:29.273Z,0.79
2023-03-30T13:00:09.623Z,0.94
2023-03-30T13:02:46.475Z,0.92
2023-03-30T13:05:20.995Z,0.94
2023-03-30T13:07:51.309Z,0.96
2023-03-30T13:10:36.922Z,0.90
2023-03-30T13:13:05.949Z,0.84
2023-03-30T13:15:35.980Z,0.81
2023-03-30T13:18:04.953Z,0.73
2023-03-30T13:20:34.220Z,0.73
2023-03-30T13:23:16.696Z,0.82
2023-03-30T13:25:49.645Z,0.78
2023-03-30T13:28:37.402Z,0.78
2023-03-30T13:31:11.599Z,0.79
2023-03-30T13:33:42.745Z,0.82
2023-03-30T13:36:13.570Z,0.87
2023-03-30T13:38:53.174Z,0.85
2023-03-30T13:41:28.231Z,0.84
2023-03-30T13:44:05.594Z,0.86
2023-03-30T13:46:36.536Z,0.90
2023-03-30T13:49:16.601Z,0.98
2023-03-30T13:51:44.392Z,1.02
2023-03-30T13:54:15.013Z,1.05
2023-03-30T13:56:47.168Z,1.02
2023-03-30T13:59:17.470Z,1.05
2023-03-30T14:01:48.232Z,1.06
2023-03-30T14:04:16.379Z,1.06
2023-03-30T14:06:45.806Z,1.00
2023-03-30T14:09:14.533Z,0.92
2023-03-30T14:11:44.751Z,0.85
2023-03-30T14:14:17.803Z,0.84
2023-03-30T14:16:45.445Z,0.88
2023-03-30T14:19:18.659Z,0.76
2023-03-30T14:21:47.441Z,0.71
2023-03-30T14:24:17.024Z,0.65
2023-03-30T14:26:46.787Z,0.60
2023-03-30T14:29:28.596Z,0.64
2023-03-30T14:32:07.986Z,0.66
2023-03-30T14:34:37.528Z,0.68
2023-03-30T14:37:06.489Z,0.79
2023-03-30T14:39:37.178Z,0.86
2023-03-30T14:42:10.406Z,0.93
2023-03-30T14:44:41.417Z,0.91
2023-03-30T14:47:09.310Z,0.89
2023-03-30T14:49:37.792Z,0.95
2023-03-30T14:52:09.450Z,1.00
2023-03-30T14:54:38.222Z,1.04
2023-03-30T14:57:10.374Z,1.05
2023-03-30T14:59:44.452Z,0.99
2023-03-30T15:02:19.215Z,0.96
2023-03-30T15:04:47.080Z,0.92
2023-03-30T15:07:16.259Z,0.87
2023-03-30T15:09:46.090Z,0.81
2023-03-30T15:12:19.177Z,0.76
2023-03-30T15:14:49.209Z,0.70
2023-03-30T15:17:19.662Z,0.63
2023-03-30T15:19:48.463Z,0.58
2023-03-30T15:22:21.812Z,0.54
2023-03-30T15:24:49.535Z,0.52
2023-03-30T15:27:17.892Z,0.50
2023-03-30T15:29:47.198Z,0.48
2023-03-30T15:32:18.295Z,0.47
2023-03-30T15:35:04.121Z,0.50
2023-03-30T15:37:33.228Z,0.56
2023-03-30T15:40:01.053Z,0.61
2023-03-30T15:42:30.551Z,0.61
2023-03-30T15:45:04.869Z,0.66
2023-03-30T15:47:34.776Z,0.64
2023-03-30T15:50:02.727Z,0.62
2023-03-30T15:52:34.083Z,0.61
2023-03-30T15:55:04.108Z,0.59
2023-03-30T15:57:32.038Z,0.59
2023-03-30T16:00:01.932Z,0.57
2023-03-30T16:02:39.161Z,0.55
2023-03-30T16:05:07.879Z,0.52
2023-03-30T16:07:36.281Z,0.46
2023-03-30T16:10:03.967Z,0.40
2023-03-30T16:12:32.355Z,0.37
2023-03-30T16:15:00.019Z,0.31
2023-03-30T16:17:27.677Z,0.25
2023-03-30T16:19:56.701Z,0.19
2023-03-30T16:22:24.452Z,0.15
2023-03-30T16:24:53.298Z,0.10
2023-03-30T16:27:22.098Z,0.04
2023-03-30T16:29:49.809Z,-0.02
2023-03-30T16:32:17.606Z,-0.08
2023-03-30T16:34:46.265Z,-0.12
2023-03-30T16:37:15.334Z,-0.14
2023-03-30T16:39:43.749Z,-0.20
2023-03-30T16:42:11.463Z,-0.28
2023-03-30T16:44:39.109Z,-0.36
2023-03-30T16:47:07.293Z,-0.39
2023-03-30T16:49:34.956Z,-0.42
2023-03-30T16:52:03.012Z,-0.46
2023-03-30T16:54:33.153Z,-0.49
2023-03-30T16:57:01.365Z,-0.56
2023-03-30T16:59:30.743Z,-0.61
2023-03-30T17:01:58.880Z,-0.68
2023-03-30T17:04:26.952Z,-0.76
2023-03-30T17:06:55.114Z,-0.84
2023-03-30T17:09:23.362Z,-0.89
2023-03-30T17:11:52.527Z,-0.94
2023-03-30T17:14:23.397Z,-1.03
2023-03-30T17:16:51.182Z,-1.13
2023-03-30T17:19:18.841Z,-1.16
2023-03-30T17:21:46.594Z,-1.19
2023-03-30T17:24:16.502Z,-1.20
2023-03-30T17:26:44.256Z,-1.22
2023-03-30T17:29:13.302Z,-1.29
2023-03-30T17:31:45.866Z,-1.36
2023-03-30T17:34:14.005Z,-1.45
2023-03-30T17:36:41.694Z,-1.51
2023-03-30T17:39:11.063Z,-1.53
2023-03-30T17:41:39.017Z,-1.57
2023-03-30T17:44:08.783Z,-1.62
2023-03-30T17:46:37.977Z,-1.70
2023-03-30T17:49:05.706Z,-1.83
2023-03-30T17:51:33.378Z,-1.89
2023-03-30T17:54:01.090Z,-1.91
2023-03-30T17:56:28.903Z,-1.89
2023-03-30T17:58:56.564Z,-1.96
2023-03-30T18:01:24.252Z,-2.05
2023-03-30T18:03:53.368Z,-2.05
2023-03-30T18:06:21.110Z,-2.02
2023-03-30T18:08:48.900Z,-2.08
2023-03-30T18:11:16.512Z,-2.11
2023-03-30T18:13:44.179Z,-2.15
2023-03-30T18:16:13.118Z,-2.19
2023-03-30T18:18:40.867Z,-2.23
2023-03-30T18:21:11.607Z,-2.30
2023-03-30T18:23:39.327Z,-2.34
2023-03-30T18:26:10.509Z,-2.41
2023-03-30T18:28:40.634Z,-2.44
2023-03-30T18:31:08.821Z,-2.46
2023-03-30T18:33:36.663Z,-2.50
2023-03-30T18:36:08.069Z,-2.54
2023-03-30T18:38:37.725Z,-2.61
2023-03-30T18:41:05.433Z,-2.71
2023-03-30T18:43:33.495Z,-2.74
2023-03-30T18:46:02.252Z,-2.80
2023-03-30T18:48:30.487Z,-2.85
2023-03-30T18:50:58.830Z,-2.84
2023-03-30T18:53:27.173Z,-2.87
2023-03-30T18:55:57.477Z,-2.83
2023-03-30T18:58:26.412Z,-2.90
2023-03-30T19:00:54.592Z,-2.88
2023-03-30T19:03:23.008Z,-2.90
2023-03-30T19:05:51.416Z,-2.90
2023-03-30T19:08:20.244Z,-2.89
2023-03-30T19:10:49.438Z,-2.86
2023-03-30T19:13:19.216Z,-2.88
2023-03-30T19:15:47.732Z,-2.93
2023-03-30T19:18:15.540Z,-2.89
2023-03-30T19:20:43.240Z,-2.90
2023-03-30T19:23:12.486Z,-2.87
2023-03-30T19:25:40.610Z,-2.91
2023-03-30T19:28:08.653Z,-2.87
2023-03-30T19:30:39.655Z,-2.78
2023-03-30T19:33:09.183Z,-2.69
2023-03-30T19:35:38.021Z,-2.61
2023-03-30T19:38:05.730Z,-2.53
2023-03-30T19:40:33.430Z,-2.48
2023-03-30T19:43:01.085Z,-2.44
2023-03-30T19:45:28.896Z,-2.41
2023-03-30T19:47:58.052Z,-2.35
2023-03-30T19:50:26.401Z,-2.30
2023-03-30T19:52:55.254Z,-2.27
2023-03-30T19:55:22.955Z,-2.23
2023-03-30T19:57:50.578Z,-2.20
2023-03-30T20:00:18.800Z,-2.16
2023-03-30T20:02:47.432Z,-2.13
2023-03-30T20:05:16.851Z,-2.11
2023-03-30T20:07:44.883Z,-2.09
2023-03-30T20:10:13.531Z,-2.04
2023-03-30T20:12:41.204Z,-2.01
2023-03-30T20:15:09.700Z,-2.01
2023-03-30T20:17:38.290Z,-1.99
2023-03-30T20:20:09.092Z,-1.98
2023-03-30T20:22:39.853Z,-1.98
2023-03-30T20:25:08.675Z,-2.00
2023-03-30T20:27:36.569Z,-1.96
2023-03-30T20:30:05.185Z,-1.93
2023-03-30T20:32:33.079Z,-1.91
2023-03-30T20:35:00.799Z,-1.88
2023-03-30T20:37:28.541Z,-1.89
2023-03-30T20:40:03.532Z,-1.86
2023-03-30T20:42:31.929Z,-1.84
2023-03-30T20:45:01.213Z,-1.85
2023-03-30T20:47:30.136Z,-1.85
2023-03-30T20:49:58.455Z,-1.81
2023-03-30T20:52:26.179Z,-1.77
2023-03-30T20:54:54.397Z,-1.73
2023-03-30T20:57:25.218Z,-1.69
2023-03-30T20:59:54.250Z,-1.69
2023-03-30T21:02:22.107Z,-1.66
2023-03-30T21:04:50.417Z,-1.66
2023-03-30T21:07:18.394Z,-1.63
2023-03-30T21:09:47.308Z,-1.64
2023-03-30T21:12:15.076Z,-1.65
2023-03-30T21:14:45.873Z,-1.65
2023-03-30T21:17:13.656Z,-1.61
2023-03-30T21:19:41.434Z,-1.60
2023-03-30T21:22:11.506Z,-1.60
2023-03-30T21:24:39.185Z,-1.60
2023-03-30T21:27:06.872Z,-1.59
2023-03-30T21:29:34.589Z,-1.60
2023-03-30T21:32:03.629Z,-1.59
2023-03-30T21:34:31.399Z,-1.57
2023-03-30T21:36:59.563Z,-1.56
2023-03-30T21:39:27.435Z,-1.56
2023-03-30T21:41:55.100Z,-1.55
2023-03-30T21:44:23.209Z,-1.56
2023-03-30T21:46:50.937Z,-1.56
2023-03-30T21:49:20.045Z,-1.55
2023-03-30T21:51:48.769Z,-1.54
2023-03-30T21:54:17.608Z,-1.54
2023-03-30T21:56:45.301Z,-1.56
2023-03-30T21:59:13.022Z,-1.61
2023-03-30T22:01:40.907Z,-1.68
2023-03-30T22:04:08.662Z,-1.70
2023-03-30T22:06:37.705Z,-1.68
2023-03-30T22:09:05.955Z,-1.64
2023-03-30T22:11:33.685Z,-1.63
2023-03-30T22:14:01.323Z,-1.64
2023-03-30T22:16:31.459Z,-1.64
2023-03-30T22:18:59.200Z,-1.64
2023-03-30T22:21:29.159Z,-1.64
2023-03-30T22:23:58.266Z,-1.67
2023-03-30T22:26:27.261Z,-1.69
2023-03-30T22:28:55.156Z,-1.68
2023-03-30T22:31:22.892Z,-1.65
2023-03-30T22:33:50.849Z,-1.65
2023-03-30T22:36:20.491Z,-1.62
2023-03-30T22:38:48.415Z,-1.62
2023-03-30T22:41:18.851Z,-1.66
2023-03-30T22:43:46.842Z,-1.67
2023-03-30T22:46:14.529Z,-1.69
2023-03-30T22:48:42.395Z,-1.70
2023-03-30T22:51:14.152Z,-1.68
2023-03-30T22:53:42.074Z,-1.68
2023-03-30T22:56:09.747Z,-1.69
2023-03-30T22:58:38.869Z,-1.71
2023-03-30T23:01:10.173Z,-1.71
2023-03-30T23:03:38.077Z,-1.69
2023-03-30T23:06:06.039Z,-1.69
2023-03-30T23:08:33.848Z,-1.72
2023-03-30T23:11:04.954Z,-1.71
2023-03-30T23:13:33.381Z,-1.68
2023-03-30T23:16:02.397Z,-1.68
2023-03-30T23:18:30.061Z,-1.69
2023-03-30T23:20:58.084Z,-1.69
2023-03-30T23:23:25.911Z,-1.69
2023-03-30T23:25:54.117Z,-1.67
2023-03-30T23:28:21.716Z,-1.69
2023-03-30T23:30:49.408Z,-1.66
2023-03-30T23:33:18.490Z,-1.70
2023-03-30T23:35:48.767Z,-1.74
2023-03-30T23:38:17.015Z,-1.73
2023-03-30T23:40:44.971Z,-1.72
2023-03-30T23:43:12.631Z,-1.72
2023-03-30T23:45:43.110Z,-1.72
2023-03-30T23:48:10.848Z,-1.71
2023-03-30T23:50:40.037Z,-1.76
2023-03-30T23:53:07.698Z,-1.72
2023-03-30T23:55:35.321Z,-1.75
2023-03-30T23:58:02.985Z,-1.76
